createdAt,value
2017-06-29T00:00:22.777Z,21.22
2017-06-29T00:01:03.673Z,21.17
2017-06-29T00:01:44.549Z,21.18
2017-06-29T00:02:25.477Z,21.14
2017-06-29T00:03:06.372Z,21.11
2017-06-29T00:03:47.262Z,21.02
2017-06-29T00:04:28.207Z,21.03
2017-06-29T00:05:09.085Z,21.02
2017-06-29T00:05:49.988Z,20.97
2017-06-29T00:06:30.871Z,21.03
2017-06-29T00:07:11.779Z,21.02
2017-06-29T00:07:52.671Z,20.99
2017-06-29T00:08:33.562Z,21
2017-06-29T00:09:14.466Z,21
2017-06-29T00:09:55.333Z,21
2017-06-29T00:10:36.245Z,21.03
2017-06-29T00:11:17.149Z,20.87
2017-06-29T00:11:58.030Z,20.9
2017-06-29T00:12:38.920Z,20.82
2017-06-29T00:13:19.941Z,20.84
2017-06-29T00:14:37.835Z,20.8
2017-06-29T00:15:18.709Z,20.85
2017-06-29T00:15:59.586Z,20.82
2017-06-29T00:16:40.494Z,20.84
2017-06-29T00:17:21.375Z,20.85
2017-06-29T00:18:02.255Z,20.82
2017-06-29T00:18:43.132Z,20.81
2017-06-29T00:19:24.039Z,20.84
2017-06-29T00:20:04.925Z,20.85
2017-06-29T00:20:45.837Z,20.82
2017-06-29T00:21:26.743Z,20.82
2017-06-29T00:22:07.665Z,20.8
2017-06-29T00:22:48.545Z,20.85
2017-06-29T00:23:29.431Z,20.81
2017-06-29T00:24:10.324Z,20.84
2017-06-29T00:24:51.218Z,20.9
2017-06-29T00:25:32.114Z,21
2017-06-29T00:26:13.015Z,21.02
2017-06-29T00:26:53.912Z,20.95
2017-06-29T00:27:34.799Z,20.88
2017-06-29T00:28:15.683Z,20.99
2017-06-29T00:28:56.570Z,20.92
2017-06-29T00:29:37.477Z,21
2017-06-29T00:30:18.363Z,21
2017-06-29T00:30:59.264Z,21
2017-06-29T00:31:40.151Z,20.96
2017-06-29T00:32:21.057Z,21.02
2017-06-29T00:33:01.951Z,20.97
2017-06-29T00:33:42.849Z,20.97
2017-06-29T00:34:23.763Z,20.88
2017-06-29T00:35:04.659Z,20.93
2017-06-29T00:35:45.557Z,20.88
2017-06-29T00:36:26.466Z,20.92
2017-06-29T00:37:07.327Z,20.81
2017-06-29T00:37:48.247Z,20.69
2017-06-29T00:38:29.131Z,20.75
2017-06-29T00:39:10.024Z,20.84
2017-06-29T00:39:50.919Z,20.75
2017-06-29T00:40:31.809Z,20.7
2017-06-29T00:41:12.675Z,20.74
2017-06-29T00:41:53.569Z,20.75
2017-06-29T00:42:34.459Z,20.78
2017-06-29T00:43:15.345Z,20.77
2017-06-29T00:43:56.250Z,20.75
2017-06-29T00:44:37.128Z,20.77
2017-06-29T00:45:18.016Z,20.77
2017-06-29T00:45:58.905Z,20.7
2017-06-29T00:46:39.803Z,20.67
2017-06-29T00:47:20.691Z,20.75
2017-06-29T00:48:01.579Z,20.72
2017-06-29T00:48:42.496Z,20.63
2017-06-29T00:49:23.370Z,20.66
2017-06-29T00:50:04.265Z,20.63
2017-06-29T00:50:45.163Z,20.7
2017-06-29T00:51:26.066Z,20.67
2017-06-29T00:52:06.943Z,20.62
2017-06-29T00:52:47.841Z,20.63
2017-06-29T00:53:28.734Z,20.66
2017-06-29T00:54:09.632Z,20.59
2017-06-29T00:54:50.528Z,20.62
2017-06-29T00:55:31.421Z,20.62
2017-06-29T00:56:12.317Z,20.65
2017-06-29T00:56:53.196Z,20.59
2017-06-29T00:57:34.077Z,20.62
2017-06-29T00:58:14.972Z,20.66
2017-06-29T00:58:55.867Z,20.7
2017-06-29T00:59:36.741Z,20.63
2017-06-29T01:00:17.636Z,20.66
2017-06-29T01:00:58.560Z,20.69
2017-06-29T01:01:39.428Z,20.69
2017-06-29T01:02:20.310Z,20.66
2017-06-29T01:03:01.204Z,20.65
2017-06-29T01:03:42.088Z,20.62
2017-06-29T01:04:22.976Z,20.62
2017-06-29T01:05:03.877Z,20.67
2017-06-29T01:05:44.776Z,20.69
2017-06-29T01:06:25.668Z,20.63
2017-06-29T01:07:06.589Z,20.74
2017-06-29T01:07:47.460Z,20.67
2017-06-29T01:08:28.335Z,20.75
2017-06-29T01:09:09.229Z,20.72
2017-06-29T01:09:50.124Z,20.77
2017-06-29T01:10:31.016Z,20.74
2017-06-29T01:11:11.916Z,20.74
2017-06-29T01:11:52.799Z,20.65
2017-06-29T01:12:33.695Z,20.67
2017-06-29T01:13:14.590Z,20.66
2017-06-29T01:13:55.483Z,20.69
2017-06-29T01:14:36.368Z,20.69
2017-06-29T01:15:17.265Z,20.66
2017-06-29T01:15:58.160Z,20.7
2017-06-29T01:16:39.045Z,20.69
2017-06-29T01:17:19.941Z,20.72
2017-06-29T01:18:00.827Z,20.6
2017-06-29T01:18:41.717Z,20.69
2017-06-29T01:19:22.637Z,20.72
2017-06-29T01:20:03.527Z,20.75
2017-06-29T01:20:44.425Z,20.74
2017-06-29T01:21:25.323Z,20.75
2017-06-29T01:22:06.225Z,20.7
2017-06-29T01:22:47.130Z,20.77
2017-06-29T01:23:28.020Z,20.75
2017-06-29T01:24:08.907Z,20.74
2017-06-29T01:24:49.842Z,20.77
2017-06-29T01:26:07.755Z,20.74
2017-06-29T01:26:48.656Z,20.81
2017-06-29T01:27:29.556Z,20.84
2017-06-29T01:28:10.425Z,20.78
2017-06-29T01:28:51.319Z,20.82
2017-06-29T01:29:32.213Z,20.82
2017-06-29T01:30:13.108Z,20.78
2017-06-29T01:30:54.003Z,20.8
2017-06-29T01:31:34.896Z,20.92
2017-06-29T01:32:15.793Z,20.88
2017-06-29T01:32:56.676Z,20.84
2017-06-29T01:33:37.562Z,20.87
2017-06-29T01:34:18.469Z,20.88
2017-06-29T01:34:59.377Z,20.74
2017-06-29T01:35:40.264Z,20.63
2017-06-29T01:36:21.160Z,20.62
2017-06-29T01:37:02.049Z,20.62
2017-06-29T01:37:42.935Z,20.63
2017-06-29T01:38:23.825Z,20.59
2017-06-29T01:39:04.734Z,20.58
2017-06-29T01:39:45.630Z,20.65
2017-06-29T01:40:26.518Z,20.62
2017-06-29T01:41:07.385Z,20.58
2017-06-29T01:41:48.284Z,20.59
2017-06-29T01:42:29.169Z,20.59
2017-06-29T01:43:10.058Z,20.63
2017-06-29T01:43:50.955Z,20.63
2017-06-29T01:44:31.840Z,20.65
2017-06-29T01:45:12.756Z,20.52
2017-06-29T01:45:53.660Z,20.6
2017-06-29T01:46:34.552Z,20.63
2017-06-29T01:47:15.476Z,20.59
2017-06-29T01:47:56.345Z,20.63
2017-06-29T01:48:37.246Z,20.56
2017-06-29T01:49:18.133Z,20.67
2017-06-29T01:49:59.020Z,20.65
2017-06-29T01:50:39.922Z,20.72
2017-06-29T01:51:20.808Z,20.72
2017-06-29T01:52:01.695Z,20.75
2017-06-29T01:52:42.607Z,20.72
2017-06-29T01:53:23.513Z,20.74
2017-06-29T01:54:04.400Z,20.72
2017-06-29T01:54:45.299Z,20.75
2017-06-29T01:55:26.184Z,20.62
2017-06-29T01:56:07.065Z,20.59
2017-06-29T01:56:47.938Z,20.62
2017-06-29T01:57:28.835Z,20.78
2017-06-29T01:58:09.726Z,20.62
2017-06-29T01:58:50.614Z,20.56
2017-06-29T01:59:31.503Z,20.52
2017-06-29T02:00:12.392Z,20.47
2017-06-29T02:00:53.281Z,20.44
2017-06-29T02:01:34.160Z,20.5
2017-06-29T02:02:15.052Z,20.5
2017-06-29T02:02:55.949Z,20.52
2017-06-29T02:03:36.838Z,20.58
2017-06-29T02:04:17.738Z,20.59
2017-06-29T02:04:58.645Z,20.67
2017-06-29T02:05:39.542Z,20.39
2017-06-29T02:06:20.427Z,20.37
2017-06-29T02:07:01.329Z,20.29
2017-06-29T02:07:42.218Z,20.25
2017-06-29T02:08:23.115Z,20.25
2017-06-29T02:09:04.006Z,20.25
2017-06-29T02:09:44.895Z,20.16
2017-06-29T02:10:25.791Z,20.13
2017-06-29T02:11:06.684Z,20.22
2017-06-29T02:11:47.577Z,20.31
2017-06-29T02:12:28.475Z,20.41
2017-06-29T02:13:09.356Z,20.39
2017-06-29T02:13:50.254Z,20.47
2017-06-29T02:14:31.152Z,20.39
2017-06-29T02:15:12.033Z,20.44
2017-06-29T02:15:52.944Z,20.6
2017-06-29T02:16:33.837Z,20.65
2017-06-29T02:17:14.730Z,20.62
2017-06-29T02:17:55.624Z,20.59
2017-06-29T02:18:36.514Z,20.59
2017-06-29T02:19:17.391Z,20.51
2017-06-29T02:19:58.280Z,20.58
2017-06-29T02:20:39.178Z,20.55
2017-06-29T02:21:20.056Z,20.65
2017-06-29T02:22:00.957Z,20.62
2017-06-29T02:22:41.855Z,20.47
2017-06-29T02:23:22.750Z,20.55
2017-06-29T02:24:03.644Z,20.6
2017-06-29T02:24:44.543Z,20.52
2017-06-29T02:25:25.438Z,20.44
2017-06-29T02:26:06.338Z,20.4
2017-06-29T02:26:47.243Z,20.36
2017-06-29T02:27:28.131Z,20.41
2017-06-29T02:28:09.025Z,20.47
2017-06-29T02:28:49.930Z,20.4
2017-06-29T02:29:30.831Z,20.48
2017-06-29T02:30:11.720Z,20.39
2017-06-29T02:30:52.613Z,20.48
2017-06-29T02:31:33.510Z,20.48
2017-06-29T02:32:14.400Z,20.47
2017-06-29T02:32:55.295Z,20.55
2017-06-29T02:33:36.186Z,20.5
2017-06-29T02:34:17.069Z,20.37
2017-06-29T02:34:57.961Z,20.28
2017-06-29T02:35:38.860Z,20.31
2017-06-29T02:36:19.783Z,20.31
2017-06-29T02:37:00.697Z,20.28
2017-06-29T02:37:41.560Z,20.22
2017-06-29T02:38:22.436Z,20.19
2017-06-29T02:39:03.321Z,20.04
2017-06-29T02:39:44.200Z,20.14
2017-06-29T02:40:25.101Z,20.16
2017-06-29T02:41:05.988Z,20.24
2017-06-29T02:41:46.879Z,20.21
2017-06-29T02:42:27.766Z,20.21
2017-06-29T02:43:08.653Z,20.36
2017-06-29T02:43:49.543Z,20.25
2017-06-29T02:44:30.447Z,20.14
2017-06-29T02:45:11.334Z,20.22
2017-06-29T02:45:52.220Z,20.21
2017-06-29T02:46:33.109Z,20.19
2017-06-29T02:47:13.989Z,20.24
2017-06-29T02:47:54.880Z,20.07
2017-06-29T02:48:35.783Z,20.11
2017-06-29T02:49:16.668Z,20.1
2017-06-29T02:49:57.555Z,20.14
2017-06-29T02:50:38.464Z,20.22
2017-06-29T02:51:19.356Z,20.32
2017-06-29T02:52:00.251Z,20.36
2017-06-29T02:52:41.149Z,20.29
2017-06-29T02:53:22.039Z,20.41
2017-06-29T02:54:02.936Z,20.43
2017-06-29T02:54:43.831Z,20.48
2017-06-29T02:55:24.725Z,20.34
2017-06-29T02:56:05.626Z,20.48
2017-06-29T02:56:46.513Z,20.34
2017-06-29T02:57:27.406Z,20.32
2017-06-29T02:58:08.314Z,20.26
2017-06-29T02:58:49.187Z,20.39
2017-06-29T02:59:30.082Z,20.41
2017-06-29T03:00:10.976Z,20.47
2017-06-29T03:00:51.858Z,20.55
2017-06-29T03:01:32.739Z,20.56
2017-06-29T03:02:13.627Z,20.56
2017-06-29T03:02:54.528Z,20.58
2017-06-29T03:03:35.416Z,20.48
2017-06-29T03:04:16.311Z,20.43
2017-06-29T03:04:57.209Z,20.51
2017-06-29T03:05:38.101Z,20.47
2017-06-29T03:06:18.999Z,20.47
2017-06-29T03:06:59.897Z,20.41
2017-06-29T03:07:40.788Z,20.43
2017-06-29T03:08:21.672Z,20.32
2017-06-29T03:09:02.561Z,20.36
2017-06-29T03:09:43.458Z,20.26
2017-06-29T03:10:24.352Z,20.19
2017-06-29T03:11:05.254Z,20.18
2017-06-29T03:11:46.180Z,20.19
2017-06-29T03:12:27.071Z,20.21
2017-06-29T03:13:07.970Z,20.21
2017-06-29T03:13:48.857Z,20.14
2017-06-29T03:14:29.751Z,20.07
2017-06-29T03:15:10.632Z,20.03
2017-06-29T03:15:51.530Z,20.11
2017-06-29T03:16:32.426Z,20.04
2017-06-29T03:17:13.318Z,20.11
2017-06-29T03:17:54.211Z,20.14
2017-06-29T03:18:35.090Z,20.29
2017-06-29T03:19:15.992Z,20.36
2017-06-29T03:19:56.889Z,20.36
2017-06-29T03:20:37.773Z,20.41
2017-06-29T03:21:18.666Z,20.41
2017-06-29T03:21:59.569Z,20.44
2017-06-29T03:22:40.458Z,20.44
2017-06-29T03:23:21.350Z,20.51
2017-06-29T03:24:02.248Z,20.44
2017-06-29T03:24:43.138Z,20.58
2017-06-29T03:25:24.039Z,20.62
2017-06-29T03:26:04.924Z,20.62
2017-06-29T03:26:45.816Z,20.58
2017-06-29T03:27:26.706Z,20.56
2017-06-29T03:28:07.603Z,20.44
2017-06-29T03:28:48.490Z,20.28
2017-06-29T03:29:29.402Z,20.24
2017-06-29T03:30:10.284Z,20.22
2017-06-29T03:30:51.189Z,20.14
2017-06-29T03:31:32.093Z,20.21
2017-06-29T03:32:12.982Z,20.31
2017-06-29T03:32:53.860Z,20.29
2017-06-29T03:33:34.773Z,20.43
2017-06-29T03:34:15.655Z,20.43
2017-06-29T03:34:56.541Z,20.51
2017-06-29T03:35:37.430Z,20.59
2017-06-29T03:36:18.309Z,20.51
2017-06-29T03:36:59.234Z,20.59
2017-06-29T03:37:40.123Z,20.44
2017-06-29T03:38:21.012Z,20.52
2017-06-29T03:39:01.918Z,20.55
2017-06-29T03:39:42.890Z,20.5
2017-06-29T03:40:23.773Z,20.39
2017-06-29T03:41:04.671Z,20.44
2017-06-29T03:41:45.559Z,20.36
2017-06-29T03:42:26.470Z,20.41
2017-06-29T03:43:07.364Z,20.5
2017-06-29T03:43:48.231Z,20.5
2017-06-29T03:44:29.124Z,20.37
2017-06-29T03:45:10.022Z,20.4
2017-06-29T03:45:50.922Z,20.37
2017-06-29T03:46:31.794Z,20.18
2017-06-29T03:47:12.694Z,20.14
2017-06-29T03:47:53.583Z,20.21
2017-06-29T03:48:34.480Z,20.13
2017-06-29T03:49:15.375Z,20.19
2017-06-29T03:49:56.277Z,20.09
2017-06-29T03:50:37.163Z,20.18
2017-06-29T03:51:18.056Z,20.25
2017-06-29T03:51:58.953Z,20.39
2017-06-29T03:52:39.842Z,20.47
2017-06-29T03:53:20.736Z,20.6
2017-06-29T03:54:01.634Z,20.59
2017-06-29T03:54:42.537Z,20.74
2017-06-29T03:55:23.430Z,20.77
2017-06-29T03:56:04.309Z,20.81
2017-06-29T03:56:45.194Z,20.92
2017-06-29T03:57:26.091Z,20.84
2017-06-29T03:58:06.986Z,20.99
2017-06-29T03:58:47.885Z,21.03
2017-06-29T03:59:28.773Z,20.99
2017-06-29T04:00:09.653Z,21.05
2017-06-29T04:00:50.548Z,20.99
2017-06-29T04:01:31.462Z,20.96
2017-06-29T04:02:12.386Z,20.92
2017-06-29T04:02:53.243Z,20.84
2017-06-29T04:03:34.141Z,20.81
2017-06-29T04:04:15.052Z,20.75
2017-06-29T04:04:55.944Z,20.66
2017-06-29T04:05:36.840Z,20.6
2017-06-29T04:06:17.736Z,20.6
2017-06-29T04:06:58.638Z,20.63
2017-06-29T04:07:39.521Z,20.59
2017-06-29T04:08:20.413Z,20.44
2017-06-29T04:09:01.317Z,20.51
2017-06-29T04:09:42.210Z,20.67
2017-06-29T04:10:23.102Z,20.62
2017-06-29T04:11:03.992Z,20.66
2017-06-29T04:11:44.885Z,20.8
2017-06-29T04:12:25.783Z,20.75
2017-06-29T04:13:06.675Z,20.75
2017-06-29T04:13:47.581Z,20.82
2017-06-29T04:14:28.474Z,20.7
2017-06-29T04:15:09.390Z,20.96
2017-06-29T04:15:50.291Z,20.96
2017-06-29T04:16:31.185Z,21.12
2017-06-29T04:17:12.081Z,21.12
2017-06-29T04:17:52.981Z,21.2
2017-06-29T04:18:33.878Z,21.17
2017-06-29T04:19:14.776Z,21.12
2017-06-29T04:19:55.670Z,21.15
2017-06-29T04:20:36.571Z,21.14
2017-06-29T04:21:17.475Z,20.96
2017-06-29T04:21:58.362Z,20.81
2017-06-29T04:22:39.262Z,20.96
2017-06-29T04:23:20.155Z,21.03
2017-06-29T04:24:01.058Z,21.12
2017-06-29T04:24:41.960Z,21.24
2017-06-29T04:25:22.850Z,21.3
2017-06-29T04:26:03.765Z,21.21
2017-06-29T04:26:44.715Z,21.21
2017-06-29T04:27:25.600Z,21.18
2017-06-29T04:28:06.487Z,21.21
2017-06-29T04:28:47.398Z,21.14
2017-06-29T04:29:28.287Z,20.75
2017-06-29T04:30:09.186Z,20.56
2017-06-29T04:30:50.111Z,20.62
2017-06-29T04:31:30.987Z,20.59
2017-06-29T04:32:11.893Z,20.5
2017-06-29T04:32:52.786Z,20.55
2017-06-29T04:33:33.679Z,20.41
2017-06-29T04:34:14.578Z,20.51
2017-06-29T04:34:55.469Z,20.65
2017-06-29T04:35:36.385Z,20.65
2017-06-29T04:36:17.296Z,20.34
2017-06-29T04:36:58.200Z,20.36
2017-06-29T04:37:39.089Z,20.29
2017-06-29T04:38:19.983Z,20.26
2017-06-29T04:39:00.885Z,20.36
2017-06-29T04:39:41.785Z,20.51
2017-06-29T04:40:22.668Z,20.58
2017-06-29T04:41:03.553Z,20.65
2017-06-29T04:41:44.451Z,20.67
2017-06-29T04:42:25.344Z,20.6
2017-06-29T04:43:06.247Z,20.32
2017-06-29T04:43:47.137Z,20.21
2017-06-29T04:44:28.030Z,20.13
2017-06-29T04:45:08.923Z,20.04
2017-06-29T04:45:49.814Z,20.31
2017-06-29T04:46:30.712Z,20.28
2017-06-29T04:47:11.609Z,20.44
2017-06-29T04:47:52.491Z,20.56
2017-06-29T04:48:33.388Z,20.7
2017-06-29T04:49:14.281Z,20.8
2017-06-29T04:49:55.175Z,20.92
2017-06-29T04:50:36.077Z,20.92
2017-06-29T04:51:16.968Z,20.93
2017-06-29T04:51:57.862Z,20.7
2017-06-29T04:52:38.761Z,20.72
2017-06-29T04:53:19.654Z,20.56
2017-06-29T04:54:00.546Z,20.58
2017-06-29T04:54:41.443Z,20.74
2017-06-29T04:56:35.136Z,20.7
2017-06-29T04:57:16.029Z,20.52
2017-06-29T04:57:56.926Z,20.39
2017-06-29T04:58:37.820Z,20.4
2017-06-29T04:59:18.795Z,20.4
2017-06-29T04:59:59.700Z,20.47
2017-06-29T05:00:40.597Z,20.48
2017-06-29T05:01:21.487Z,20.52
2017-06-29T05:02:02.375Z,20.56
2017-06-29T05:02:43.268Z,20.56
2017-06-29T05:03:24.163Z,20.65
2017-06-29T05:04:05.057Z,20.66
2017-06-29T05:04:45.941Z,20.55
2017-06-29T05:05:26.847Z,20.6
2017-06-29T05:06:07.745Z,20.67
2017-06-29T05:06:48.628Z,20.75
2017-06-29T05:07:29.525Z,20.66
2017-06-29T05:08:10.416Z,20.63
2017-06-29T05:08:51.307Z,20.72
2017-06-29T05:09:32.192Z,20.82
2017-06-29T05:10:13.091Z,20.75
2017-06-29T05:10:54.000Z,20.87
2017-06-29T05:11:34.901Z,20.77
2017-06-29T05:12:15.793Z,20.66
2017-06-29T05:12:56.702Z,20.63
2017-06-29T05:13:37.604Z,20.6
2017-06-29T05:14:18.494Z,20.52
2017-06-29T05:14:59.392Z,20.5
2017-06-29T05:15:40.292Z,20.67
2017-06-29T05:16:21.196Z,20.6
2017-06-29T05:17:02.084Z,20.56
2017-06-29T05:17:43.005Z,20.75
2017-06-29T05:18:23.896Z,20.7
2017-06-29T05:19:04.790Z,20.78
2017-06-29T05:19:45.690Z,20.7
2017-06-29T05:20:26.579Z,20.77
2017-06-29T05:21:07.475Z,20.75
2017-06-29T05:21:48.367Z,20.8
2017-06-29T05:22:29.283Z,20.95
2017-06-29T05:23:10.176Z,21.18
2017-06-29T05:23:51.070Z,21.18
2017-06-29T05:24:31.971Z,21.22
2017-06-29T05:25:12.875Z,21.22
2017-06-29T05:25:53.767Z,21.22
2017-06-29T05:26:34.658Z,21.17
2017-06-29T05:27:15.565Z,21.24
2017-06-29T05:27:56.467Z,21.42
2017-06-29T05:28:37.352Z,21.48
2017-06-29T05:29:18.250Z,21.61
2017-06-29T05:29:59.142Z,21.85
2017-06-29T05:30:40.046Z,22.1
2017-06-29T05:31:20.940Z,22.32
2017-06-29T05:32:01.832Z,22.26
2017-06-29T05:32:42.727Z,22.11
2017-06-29T05:33:23.633Z,22.29
2017-06-29T05:34:04.536Z,22.28
2017-06-29T05:34:45.429Z,22.17
2017-06-29T05:35:26.330Z,22.14
2017-06-29T05:36:07.227Z,22.36
2017-06-29T05:36:48.157Z,22.38
2017-06-29T05:37:29.063Z,22.68
2017-06-29T05:38:09.961Z,22.73
2017-06-29T05:38:50.864Z,22.54
2017-06-29T05:39:31.768Z,22.7
2017-06-29T05:40:12.696Z,22.41
2017-06-29T05:40:53.593Z,22.35
2017-06-29T05:41:34.477Z,22.07
2017-06-29T05:42:15.371Z,21.96
2017-06-29T05:42:56.267Z,21.91
2017-06-29T05:43:37.178Z,21.79
2017-06-29T05:44:18.054Z,21.91
2017-06-29T05:44:58.957Z,22.17
2017-06-29T05:45:39.872Z,22.35
2017-06-29T05:46:20.753Z,22.69
2017-06-29T05:47:01.641Z,22.83
2017-06-29T05:47:42.542Z,23.03
2017-06-29T05:48:23.436Z,22.9
2017-06-29T05:49:04.332Z,22.94
2017-06-29T05:49:45.229Z,22.91
2017-06-29T05:50:26.127Z,22.96
2017-06-29T05:51:07.068Z,23.06
2017-06-29T05:51:47.971Z,23.09
2017-06-29T05:52:28.859Z,22.76
2017-06-29T05:53:09.768Z,22.85
2017-06-29T05:53:50.670Z,23.06
2017-06-29T05:54:31.573Z,22.78
2017-06-29T05:55:12.469Z,23.08
2017-06-29T05:55:53.373Z,22.76
2017-06-29T05:56:34.276Z,22.57
2017-06-29T05:57:15.170Z,22.81
2017-06-29T05:57:56.077Z,22.98
2017-06-29T05:58:36.986Z,22.96
2017-06-29T05:59:17.881Z,23.03
2017-06-29T05:59:58.780Z,23
2017-06-29T06:00:39.668Z,22.96
2017-06-29T06:01:20.646Z,22.85
2017-06-29T06:02:01.541Z,22.98
2017-06-29T06:02:42.436Z,22.93
2017-06-29T06:03:23.334Z,22.75
2017-06-29T06:04:04.243Z,22.59
2017-06-29T06:04:45.114Z,22.25
2017-06-29T06:05:26.025Z,22.22
2017-06-29T06:06:06.918Z,22.14
2017-06-29T06:06:47.796Z,22.11
2017-06-29T06:07:28.703Z,21.8
2017-06-29T06:08:09.606Z,21.93
2017-06-29T06:08:50.501Z,21.83
2017-06-29T06:09:31.422Z,21.95
2017-06-29T06:10:12.322Z,21.99
2017-06-29T06:10:53.219Z,22.35
2017-06-29T06:11:34.135Z,22.66
2017-06-29T06:12:15.036Z,22.84
2017-06-29T06:12:55.962Z,22.99
2017-06-29T06:13:36.830Z,23.12
2017-06-29T06:14:17.719Z,23.02
2017-06-29T06:14:58.626Z,23.15
2017-06-29T06:15:39.528Z,23.32
2017-06-29T06:16:20.437Z,23.27
2017-06-29T06:17:01.340Z,23.39
2017-06-29T06:17:42.273Z,23.51
2017-06-29T06:18:23.157Z,23.23
2017-06-29T06:19:04.041Z,23.34
2017-06-29T06:19:44.952Z,23.44
2017-06-29T06:20:25.881Z,23.54
2017-06-29T06:21:06.722Z,23.31
2017-06-29T06:21:47.632Z,23.21
2017-06-29T06:22:28.536Z,23.43
2017-06-29T06:23:09.424Z,23.61
2017-06-29T06:23:50.310Z,23.61
2017-06-29T06:24:31.198Z,23.48
2017-06-29T06:25:12.111Z,23.44
2017-06-29T06:25:53.006Z,23.59
2017-06-29T06:26:33.893Z,23.66
2017-06-29T06:27:14.789Z,23.21
2017-06-29T06:27:55.686Z,23.06
2017-06-29T06:28:36.574Z,22.69
2017-06-29T06:29:17.486Z,22.39
2017-06-29T06:29:58.388Z,22.66
2017-06-29T06:30:39.279Z,22.78
2017-06-29T06:31:20.185Z,23.03
2017-06-29T06:32:01.087Z,22.99
2017-06-29T06:32:41.987Z,23
2017-06-29T06:33:22.880Z,22.99
2017-06-29T06:34:03.779Z,22.98
2017-06-29T06:34:44.669Z,22.96
2017-06-29T06:35:25.582Z,22.9
2017-06-29T06:36:06.469Z,22.62
2017-06-29T06:36:47.367Z,22.62
2017-06-29T06:37:28.261Z,22.55
2017-06-29T06:38:09.165Z,22.57
2017-06-29T06:38:50.058Z,22.75
2017-06-29T06:39:30.948Z,22.81
2017-06-29T06:40:11.848Z,23
2017-06-29T06:40:52.748Z,23.25
2017-06-29T06:41:33.643Z,23.08
2017-06-29T06:42:14.531Z,23.12
2017-06-29T06:42:55.426Z,23.12
2017-06-29T06:43:36.335Z,23.27
2017-06-29T06:44:17.224Z,23.25
2017-06-29T06:44:58.135Z,23.28
2017-06-29T06:45:39.024Z,23.18
2017-06-29T06:46:19.930Z,22.96
2017-06-29T06:47:00.832Z,22.98
2017-06-29T06:47:41.742Z,22.69
2017-06-29T06:48:22.649Z,22.7
2017-06-29T06:49:03.554Z,22.96
2017-06-29T06:49:44.456Z,23.28
2017-06-29T06:50:25.343Z,23.17
2017-06-29T06:51:06.243Z,22.8
2017-06-29T06:51:48.014Z,22.55
2017-06-29T06:52:29.512Z,22.59
2017-06-29T06:53:10.410Z,22.85
2017-06-29T06:53:56.904Z,22.96
2017-06-29T06:54:37.819Z,22.85
2017-06-29T06:55:18.718Z,23.03
2017-06-29T06:55:59.606Z,23.25
2017-06-29T06:56:41.022Z,23.2
2017-06-29T06:57:21.903Z,22.98
2017-06-29T06:58:02.849Z,23.08
2017-06-29T06:58:43.722Z,22.98
2017-06-29T06:59:24.616Z,23
2017-06-29T07:00:05.518Z,23.02
2017-06-29T07:00:46.412Z,22.99
2017-06-29T07:01:29.664Z,22.75
2017-06-29T07:02:16.320Z,22.7
2017-06-29T07:02:57.214Z,22.91
2017-06-29T07:03:38.091Z,23.24
2017-06-29T07:04:18.999Z,23.51
2017-06-29T07:05:03.168Z,23.92
2017-06-29T07:06:38.224Z,24.24
2017-06-29T07:07:19.090Z,24.23
2017-06-29T07:07:59.983Z,24.18
2017-06-29T07:08:40.888Z,24.14
2017-06-29T07:09:21.778Z,23.93
2017-06-29T07:10:02.674Z,23.63
2017-06-29T07:10:43.574Z,23.76
2017-06-29T07:11:24.467Z,23.74
2017-06-29T07:12:05.421Z,23.86
2017-06-29T07:12:46.331Z,24.02
2017-06-29T07:13:27.238Z,23.74
2017-06-29T07:14:08.149Z,23.59
2017-06-29T07:14:49.049Z,23.62
2017-06-29T07:15:29.951Z,23.25
2017-06-29T07:16:10.846Z,23.18
2017-06-29T07:16:51.730Z,22.96
2017-06-29T07:17:32.628Z,23.18
2017-06-29T07:18:13.525Z,23.47
2017-06-29T07:18:54.417Z,23.5
2017-06-29T07:19:35.310Z,23.61
2017-06-29T07:20:16.209Z,23.8
2017-06-29T07:20:57.109Z,24.02
2017-06-29T07:21:38.013Z,23.78
2017-06-29T07:22:18.899Z,23.71
2017-06-29T07:22:59.790Z,23.86
2017-06-29T07:23:40.696Z,23.59
2017-06-29T07:24:21.573Z,23.86
2017-06-29T07:25:02.476Z,23.61
2017-06-29T07:25:43.371Z,23.73
2017-06-29T07:26:24.260Z,23.46
2017-06-29T07:27:05.155Z,23.51
2017-06-29T07:27:46.066Z,23.5
2017-06-29T07:28:26.958Z,23.8
2017-06-29T07:29:07.899Z,23.43
2017-06-29T07:29:48.795Z,23.02
2017-06-29T07:30:29.697Z,23.12
2017-06-29T07:31:17.375Z,23
2017-06-29T07:31:58.262Z,23
2017-06-29T07:32:39.145Z,23.13
2017-06-29T07:33:20.040Z,23.03
2017-06-29T07:34:00.997Z,23.24
2017-06-29T07:34:41.896Z,22.98
2017-06-29T07:35:22.794Z,23.13
2017-06-29T07:36:03.679Z,23.08
2017-06-29T07:36:44.544Z,23.24
2017-06-29T07:37:25.498Z,23.17
2017-06-29T07:38:06.442Z,23.21
2017-06-29T07:38:48.018Z,23.32
2017-06-29T07:39:28.884Z,23.4
2017-06-29T07:40:09.765Z,23.23
2017-06-29T07:40:50.677Z,23.03
2017-06-29T07:41:31.557Z,23.13
2017-06-29T07:42:12.479Z,23.17
2017-06-29T07:42:53.371Z,23.03
2017-06-29T07:43:34.294Z,23.24
2017-06-29T07:44:15.211Z,23.28
2017-06-29T07:44:56.109Z,23.34
2017-06-29T07:45:37.000Z,23.15
2017-06-29T07:46:17.880Z,23.4
2017-06-29T07:46:58.779Z,23.4
2017-06-29T07:47:39.672Z,23.43
2017-06-29T07:48:20.546Z,23.31
2017-06-29T07:49:01.427Z,23
2017-06-29T07:49:42.331Z,23.02
2017-06-29T07:50:23.223Z,23.18
2017-06-29T07:51:04.126Z,23.27
2017-06-29T07:51:45.027Z,23.24
2017-06-29T07:52:25.933Z,23.25
2017-06-29T07:53:06.831Z,23.32
2017-06-29T07:53:47.733Z,23.36
2017-06-29T07:54:28.622Z,23.28
2017-06-29T07:55:09.526Z,23.32
2017-06-29T07:55:50.400Z,23.1
2017-06-29T07:56:31.316Z,23.05
2017-06-29T07:57:12.205Z,22.93
2017-06-29T07:57:53.119Z,22.94
2017-06-29T07:58:34.024Z,22.73
2017-06-29T07:59:14.910Z,22.81
2017-06-29T07:59:55.836Z,22.76
2017-06-29T08:00:36.740Z,22.76
2017-06-29T08:01:17.636Z,22.81
2017-06-29T08:01:58.531Z,22.7
2017-06-29T08:02:39.465Z,22.65
2017-06-29T08:03:20.364Z,22.76
2017-06-29T08:04:01.250Z,22.72
2017-06-29T08:04:42.143Z,22.69
2017-06-29T08:05:23.044Z,22.75
2017-06-29T08:06:03.932Z,22.68
2017-06-29T08:06:44.823Z,22.62
2017-06-29T08:07:25.722Z,22.73
2017-06-29T08:08:06.607Z,22.84
2017-06-29T08:08:47.505Z,22.99
2017-06-29T08:09:28.403Z,22.91
2017-06-29T08:10:09.300Z,22.84
2017-06-29T08:10:50.193Z,23
2017-06-29T08:11:31.085Z,23.08
2017-06-29T08:12:11.973Z,23.13
2017-06-29T08:12:52.866Z,23.15
2017-06-29T08:13:33.757Z,23
2017-06-29T08:14:14.662Z,23.2
2017-06-29T08:14:55.543Z,23.24
2017-06-29T08:16:34.944Z,23.23
2017-06-29T08:17:15.844Z,23.09
2017-06-29T08:17:56.732Z,23.03
2017-06-29T08:18:37.637Z,23.06
2017-06-29T08:19:18.596Z,22.99
2017-06-29T08:19:59.461Z,22.98
2017-06-29T08:20:40.358Z,23.05
2017-06-29T08:21:21.267Z,23.06
2017-06-29T08:22:02.196Z,23.09
2017-06-29T08:22:43.095Z,23.15
2017-06-29T08:23:23.992Z,23.13
2017-06-29T08:24:04.901Z,23.06
2017-06-29T08:24:45.812Z,22.99
2017-06-29T08:25:26.710Z,23.2
2017-06-29T08:26:07.601Z,23.17
2017-06-29T08:26:48.500Z,23.39
2017-06-29T08:27:29.402Z,23.31
2017-06-29T08:28:10.296Z,23.43
2017-06-29T08:28:51.208Z,23.27
2017-06-29T08:29:32.101Z,23.4
2017-06-29T08:30:13.000Z,23.48
2017-06-29T08:30:53.999Z,23.58
2017-06-29T08:31:34.897Z,23.66
2017-06-29T08:32:15.802Z,23.73
2017-06-29T08:32:56.684Z,23.74
2017-06-29T08:33:37.581Z,23.81
2017-06-29T08:34:18.479Z,23.88
2017-06-29T08:34:59.370Z,23.93
2017-06-29T08:35:40.273Z,23.93
2017-06-29T08:36:21.163Z,23.77
2017-06-29T08:37:02.055Z,23.78
2017-06-29T08:37:42.943Z,23.51
2017-06-29T08:38:23.854Z,23.37
2017-06-29T08:39:04.760Z,23.43
2017-06-29T08:39:45.660Z,23.46
2017-06-29T08:40:26.560Z,23.5
2017-06-29T08:41:07.452Z,23.55
2017-06-29T08:41:48.333Z,23.56
2017-06-29T08:42:29.234Z,23.74
2017-06-29T08:43:10.134Z,23.77
2017-06-29T08:43:51.022Z,23.65
2017-06-29T08:44:31.912Z,23.39
2017-06-29T08:45:12.806Z,23.34
2017-06-29T08:45:53.714Z,23.24
2017-06-29T08:46:34.618Z,23.12
2017-06-29T08:47:15.508Z,23.06
2017-06-29T08:47:56.407Z,23.05
2017-06-29T08:48:37.289Z,23.17
2017-06-29T08:49:18.196Z,23.25
2017-06-29T08:49:59.077Z,23.36
2017-06-29T08:50:39.968Z,23.41
2017-06-29T08:51:20.862Z,23.39
2017-06-29T08:52:02.916Z,23.31
2017-06-29T08:52:43.794Z,23.25
2017-06-29T08:53:24.690Z,23.41
2017-06-29T08:54:05.558Z,23.34